Time;durP1;ratioP1;P1;durP2;ratioP2;P2;SDS_P1;SDS_P2;PMS_P1;PMS_P2;Temp;Humidity;BMP_temperature;BMP_pressure;BME280_temperature;BME280_humidity;BME280_pressure;Samples;Min_cycle;Max_cycle;Signal;HPM_P1;HPM_P2
2022/06/03 00:03:16;;;;;;;4.70;2.40;;;;;;;7.41;51.85;102247.09;4965102;28;20057;-78
2022/06/03 00:06:22;;;;;;;5.22;2.63;;;;;;;7.38;51.69;102251.44;4962835;28;20141;-77
2022/06/03 00:09:07;;;;;;;3.92;2.50;;;;;;;7.25;52.02;102256.72;4980192;28;20644;-77
2022/06/03 00:12:50;;;;;;;3.30;2.35;;;;;;;7.15;52.25;102246.34;4960243;28;20070;-78
2022/06/03 00:15:41;;;;;;;3.00;2.15;;;;;;;7.16;52.16;102251.56;4961797;28;20066;-77
2022/06/03 00:18:41;;;;;;;4.45;1.88;;;;;;;7.23;51.96;102253.25;4956371;28;20056;-78
2022/06/03 00:21:15;;;;;;;3.97;2.22;;;;;;;7.35;51.60;102249.72;4973118;28;20367;-78
2022/06/03 00:24:01;;;;;;;2.97;2.42;;;;;;;7.28;51.59;102256.69;4950170;28;20466;-76
2022/06/03 00:26:53;;;;;;;3.08;1.73;;;;;;;7.26;51.80;102255.81;4969527;28;20380;-79
2022/06/03 00:29:31;;;;;;;4.60;2.67;;;;;;;7.06;51.60;102252.44;4976198;28;20043;-77
2022/06/03 00:32:53;;;;;;;3.15;2.40;;;;;;;6.91;52.17;102258.56;4981283;28;20046;-78
2022/06/03 00:36:41;;;;;;;5.03;2.55;;;;;;;6.81;52.36;102255.09;4968432;28;20049;-77
2022/06/03 00:40:17;;;;;;;3.15;2.20;;;;;;;6.89;52.30;102240.38;4929149;28;20043;-78
2022/06/03 00:47:02;;;;;;;3.22;1.85;;;;;;;7.02;51.92;102238.59;4940668;29;20058;-76
2022/06/03 00:50:15;;;;;;;7.55;2.80;;;;;;;6.79;52.28;102238.66;4950465;28;20118;-78
2022/06/03 00:53:10;;;;;;;3.28;2.38;;;;;;;6.64;52.67;102247.34;4980877;28;20050;-77
2022/06/03 00:56:42;;;;;;;3.20;2.40;;;;;;;6.54;53.10;102243.03;4956533;28;20049;-76
2022/06/03 00:59:46;;;;;;;3.00;1.92;;;;;;;6.59;52.96;102233.50;4972856;28;20637;-76
2022/06/03 01:02:24;;;;;;;2.60;1.70;;;;;;;6.69;52.91;102239.56;4980751;28;20047;-76
2022/06/03 01:05:15;;;;;;;3.63;2.42;;;;;;;6.68;52.64;102243.00;4981371;28;20556;-77
2022/06/03 01:12:06;;;;;;;2.17;1.23;;;;;;;6.77;52.35;102247.31;4967742;28;20062;-79
2022/06/03 01:15:20;;;;;;;2.38;1.60;;;;;;;6.74;52.55;102250.78;4958706;28;20497;-77
2022/06/03 01:18:26;;;;;;;2.70;2.25;;;;;;;6.69;52.32;102247.34;4976780;28;20808;-78
2022/06/03 01:21:48;;;;;;;4.30;2.47;;;;;;;6.56;52.53;102249.09;4967983;28;20039;-77
2022/06/03 01:25:11;;;;;;;5.18;2.03;;;;;;;6.64;52.42;102241.28;4930679;28;20345;-78
2022/06/03 01:27:58;;;;;;;3.58;1.95;;;;;;;6.62;52.31;102243.91;4953395;28;20046;-77
2022/06/03 01:31:12;;;;;;;2.03;1.55;;;;;;;6.64;52.28;102236.09;4971690;28;20039;-78
2022/06/03 01:34:00;;;;;;;5.30;1.88;;;;;;;6.50;52.52;102239.56;4981309;28;20797;-78
2022/06/03 01:37:16;;;;;;;2.80;1.85;;;;;;;6.54;52.42;102242.19;4954748;28;20049;-78
2022/06/03 01:40:39;;;;;;;3.00;1.80;;;;;;;6.57;52.08;102231.75;4938768;28;20059;-78
2022/06/03 01:47:25;;;;;;;2.35;1.45;;;;;;;6.57;52.12;102230.03;4952349;28;20039;-79
2022/06/03 01:50:47;;;;;;;4.45;2.35;;;;;;;6.36;52.38;102232.66;4915339;28;20054;-76
2022/06/03 01:53:59;;;;;;;4.50;2.55;;;;;;;6.22;52.74;102228.31;4928657;28;20051;-77
2022/06/03 01:56:45;;;;;;;5.83;2.50;;;;;;;6.39;52.24;102224.88;4909883;29;20050;-79
2022/06/03 01:59:43;;;;;;;2.30;1.60;;;;;;;6.45;51.92;102223.13;4935255;28;20156;-77
2022/06/03 02:03:07;;;;;;;3.25;1.90;;;;;;;6.50;51.68;102223.97;4950012;28;20043;-76
2022/06/03 02:06:33;;;;;;;4.63;1.95;;;;;;;6.47;51.83;102212.75;4954534;28;20031;-76
2022/06/03 02:09:56;;;;;;;2.72;1.55;;;;;;;6.43;51.72;102211.88;4967370;28;20080;-77
2022/06/03 02:12:30;;;;;;;3.97;2.05;;;;;;;6.49;51.81;102206.69;4973799;28;20305;-77
2022/06/03 02:15:24;;;;;;;7.45;2.35;;;;;;;6.48;51.27;102204.97;4981447;28;20027;-81
2022/06/03 02:18:38;;;;;;;3.88;2.22;;;;;;;6.48;51.57;102199.75;4984684;28;20046;-78
2022/06/03 02:21:46;;;;;;;2.78;1.85;;;;;;;6.56;51.31;102201.47;4983623;28;20347;-78
2022/06/03 02:24:40;;;;;;;3.47;2.35;;;;;;;6.55;50.93;102194.53;4975182;28;20030;-77
2022/06/03 02:31:36;;;;;;;2.45;2.22;;;;;;;6.53;51.01;102204.06;4969034;28;20043;-78
2022/06/03 02:35:02;;;;;;;4.30;2.30;;;;;;;6.47;51.23;102208.41;4956901;28;20727;-79
2022/06/03 02:37:46;;;;;;;2.97;1.73;;;;;;;6.44;51.79;102207.53;4930622;28;20544;-77
2022/06/03 02:41:12;;;;;;;5.30;2.78;;;;;;;6.50;51.69;102208.38;4968700;28;20089;-77
2022/06/03 02:44:15;;;;;;;2.25;1.63;;;;;;;6.44;51.31;102212.72;4962919;28;20057;-77
2022/06/03 02:47:19;;;;;;;7.68;2.10;;;;;;;6.33;51.36;102215.38;4980269;28;20125;-79
2022/06/03 02:50:13;;;;;;;4.63;2.20;;;;;;;6.10;51.91;102215.31;4932819;28;20133;-79
2022/06/03 02:53:08;;;;;;;4.90;2.55;;;;;;;5.91;52.31;102214.47;4964886;28;20110;-77
2022/06/03 02:55:56;;;;;;;2.75;1.98;;;;;;;5.84;52.32;102220.50;4985210;28;20046;-77
2022/06/03 02:59:27;;;;;;;2.90;1.80;;;;;;;5.89;52.63;102229.16;4966521;28;20069;-80
2022/06/03 03:02:20;;;;;;;2.72;2.10;;;;;;;6.05;51.96;102215.31;4957651;28;20046;-78
2022/06/03 03:05:53;;;;;;;5.13;2.58;;;;;;;6.08;51.96;102207.56;4974272;28;20054;-78
2022/06/03 03:08:28;;;;;;;4.35;2.05;;;;;;;6.07;52.11;102212.72;4954265;28;20200;-78
2022/06/03 03:11:22;;;;;;;2.78;1.83;;;;;;;6.02;51.67;102217.91;4983581;28;20055;-76
2022/06/03 03:13:59;;;;;;;2.65;1.95;;;;;;;6.06;52.03;102216.16;4966068;28;20070;-78
2022/06/03 03:17:02;;;;;;;4.65;2.00;;;;;;;6.10;51.71;102217.91;4972201;28;20106;-77
2022/06/03 03:20:02;;;;;;;3.88;2.03;;;;;;;6.11;51.73;102219.66;4982535;28;20038;-77
2022/06/03 03:23:07;;;;;;;4.10;2.00;;;;;;;6.09;52.14;102216.19;4964306;28;20079;-77
2022/06/03 03:26:42;;;;;;;4.25;1.90;;;;;;;6.07;51.59;102223.13;4957430;28;20059;-77
2022/06/03 03:29:55;;;;;;;3.17;1.63;;;;;;;6.11;51.95;102224.00;4908181;29;20053;-78
2022/06/03 03:32:26;;;;;;;2.30;1.90;;;;;;;6.11;51.94;102222.25;4924739;29;20039;-78
2022/06/03 03:35:22;;;;;;;;;;;;;;;5.98;51.72;102223.97;4939339;28;20063;-77
2022/06/03 03:38:25;;;;;;;5.40;2.90;;;;;;;5.87;52.04;102220.50;4965115;28;19922;-77
2022/06/03 03:41:10;;;;;;;4.72;2.65;;;;;;;5.82;52.15;102225.69;4982669;28;20035;-78
2022/06/03 03:43:36;;;;;;;4.20;2.25;;;;;;;6.01;52.22;102228.28;4978514;28;20054;-77
2022/06/03 03:46:11;;;;;;;4.15;2.10;;;;;;;6.11;52.13;102218.81;4982345;28;20023;-76
2022/06/03 03:48:56;;;;;;;3.03;1.92;;;;;;;6.15;52.12;102218.81;4970237;28;20062;-77
2022/06/03 03:52:20;;;;;;;2.42;1.67;;;;;;;6.29;51.80;102218.81;4965561;28;21016;-78
2022/06/03 03:55:12;;;;;;;2.72;2.17;;;;;;;6.47;51.45;102208.41;4969282;28;20043;-77
2022/06/03 03:58:13;;;;;;;2.92;2.33;;;;;;;6.48;51.45;102204.97;4980611;28;20137;-78
2022/06/03 04:01:13;;;;;;;5.43;2.65;;;;;;;6.47;51.38;102207.56;4961236;28;20059;-78
2022/06/03 04:04:07;;;;;;;3.10;2.75;;;;;;;6.42;51.09;102210.16;4971920;28;20058;-79
2022/06/03 04:07:27;;;;;;;3.25;2.38;;;;;;;6.42;51.50;102204.09;4971807;28;20042;-77
2022/06/03 04:10:04;;;;;;;;;;;;;;;6.52;51.55;102205.81;4899833;29;20044;-78
2022/06/03 04:13:07;;;;;;;3.20;1.83;;;;;;;6.77;51.63;102217.00;4948277;28;19928;-77
2022/06/03 04:15:51;;;;;;;7.03;2.78;;;;;;;6.79;51.62;102215.25;4959336;28;20039;-79
2022/06/03 04:18:23;;;;;;;4.00;2.33;;;;;;;6.81;51.49;102208.31;4965108;28;20049;-77
2022/06/03 04:21:03;;;;;;;2.50;2.08;;;;;;;6.90;51.96;102208.28;4980812;28;20066;-78
2022/06/03 04:23:48;;;;;;;2.70;1.95;;;;;;;7.13;51.78;102209.94;4977841;28;20070;-77
2022/06/03 04:26:32;;;;;;;4.55;2.88;;;;;;;7.26;51.64;102214.22;4982773;28;20047;-78
2022/06/03 04:29:39;;;;;;;2.58;1.95;;;;;;;7.37;51.52;102213.31;4983639;28;20054;-78
2022/06/03 04:32:04;;;;;;;4.85;3.03;;;;;;;7.53;51.39;102210.63;4967092;28;20066;-78
2022/06/03 04:34:45;;;;;;;3.08;2.22;;;;;;;7.76;51.23;102213.97;4980248;28;20035;-77
2022/06/03 04:38:16;;;;;;;5.50;3.30;;;;;;;8.01;51.24;102212.06;4980044;28;20054;-76
2022/06/03 04:40:57;;;;;;;4.07;2.53;;;;;;;8.33;51.17;102209.19;4966306;28;20038;-77
2022/06/03 04:43:54;;;;;;;3.63;2.65;;;;;;;8.63;51.18;102201.94;4957275;28;20101;-77
2022/06/03 04:46:42;;;;;;;4.18;2.45;;;;;;;8.83;50.75;102205.22;4944857;28;20051;-77
2022/06/03 04:49:23;;;;;;;4.97;3.20;;;;;;;9.08;50.37;102204.94;4962471;28;20046;-78
2022/06/03 04:51:51;;;;;;;4.90;3.95;;;;;;;9.25;50.36;102210.78;4962422;28;20058;-78
2022/06/03 04:54:39;;;;;;;8.40;4.75;;;;;;;9.37;49.45;102209.78;4982092;28;20075;-79
2022/06/03 04:57:39;;;;;;;6.88;4.68;;;;;;;9.69;49.76;102213.66;4981104;28;20336;-79
2022/06/03 05:00:05;;;;;;;6.93;3.85;;;;;;;10.40;50.13;102210.78;4973614;28;20038;-79
2022/06/03 05:02:59;;;;;;;8.90;3.95;;;;;;;12.86;45.25;102207.81;4971323;28;20047;-80
2022/06/03 05:05:33;;;;;;;12.10;5.45;;;;;;;15.41;39.18;102209.78;4984797;28;20045;-78
2022/06/03 05:08:37;;;;;;;7.15;3.80;;;;;;;17.32;35.13;102210.38;4966259;28;20101;-78
2022/06/03 05:11:22;;;;;;;4.38;3.40;;;;;;;19.30;31.98;102204.63;4967679;28;20030;-77
2022/06/03 05:14:20;;;;;;;5.65;3.50;;;;;;;20.50;28.59;102195.84;4980462;28;20050;-77
2022/06/03 05:16:52;;;;;;;5.57;3.42;;;;;;;21.55;26.63;102197.22;4969069;28;20102;-78
2022/06/03 05:19:24;;;;;;;4.57;3.20;;;;;;;21.50;26.73;102199.34;4981702;28;20470;-76
2022/06/03 05:22:10;;;;;;;4.68;2.70;;;;;;;21.45;27.60;102196.13;4979262;28;20047;-79
2022/06/03 05:24:39;;;;;;;5.50;2.97;;;;;;;21.66;27.08;102196.53;4947355;28;20207;-76
2022/06/03 05:27:57;;;;;;;5.18;2.95;;;;;;;21.89;26.96;102195.84;4965014;28;20118;-76
2022/06/03 05:30:38;;;;;;;4.22;2.95;;;;;;;23.12;25.78;102197.03;4943381;28;20054;-76
2022/06/03 05:33:22;;;;;;;2.17;1.55;;;;;;;23.64;25.47;102198.56;4981899;28;20046;-80
2022/06/03 05:36:06;;;;;;;3.55;2.63;;;;;;;23.39;25.47;102199.56;4968917;28;20034;-76
2022/06/03 05:39:14;;;;;;;3.35;2.20;;;;;;;23.70;25.74;102195.44;4981108;28;20050;-77
2022/06/03 05:45:15;;;;;;;5.68;2.25;;;;;;;24.23;25.17;102178.94;4965961;28;20047;-77
2022/06/03 05:48:05;;;;;;;5.32;1.73;;;;;;;24.15;24.76;102181.38;4980803;28;20107;-77
2022/06/03 05:51:34;;;;;;;5.82;2.25;;;;;;;24.01;24.64;102172.63;4952335;28;20062;-77
2022/06/03 05:54:31;;;;;;;3.42;2.55;;;;;;;23.47;26.50;102174.97;4965071;28;20364;-78
2022/06/03 05:57:32;;;;;;;5.68;2.40;;;;;;;23.83;25.70;102185.53;4977798;28;20079;-77
2022/06/03 06:00:01;;;;;;;5.82;1.98;;;;;;;23.97;26.25;102178.31;4972212;28;20050;-77
2022/06/03 06:02:39;;;;;;;3.60;2.40;;;;;;;24.80;24.68;102182.50;4975214;28;20039;-75
2022/06/03 06:05:26;;;;;;;5.13;2.00;;;;;;;25.92;23.59;102188.44;4974315;28;20050;-78
2022/06/03 06:08:18;;;;;;;3.30;2.40;;;;;;;25.34;22.73;102187.00;4972487;28;20051;-77
2022/06/03 06:11:13;;;;;;;6.25;1.77;;;;;;;25.17;23.56;102184.84;4949841;28;20125;-77
2022/06/03 06:13:52;;;;;;;5.47;1.85;;;;;;;25.93;22.58;102185.63;4935519;28;20047;-77
2022/06/03 06:16:40;;;;;;;4.85;2.80;;;;;;;24.27;24.42;102179.56;4965718;28;20038;-78
2022/06/03 06:19:48;;;;;;;3.08;2.58;;;;;;;23.63;26.78;102188.84;4925598;28;20047;-75
2022/06/03 06:23:02;;;;;;;6.82;2.58;;;;;;;24.82;24.43;102191.25;4930095;28;20190;-79
2022/06/03 06:25:40;;;;;;;4.15;2.28;;;;;;;26.09;23.58;102195.94;4979332;28;20058;-78
2022/06/03 06:28:50;;;;;;;3.60;2.22;;;;;;;25.26;23.94;102200.16;4942894;28;20066;-80
2022/06/03 06:31:48;;;;;;;5.57;1.60;;;;;;;25.51;23.03;102193.63;4966179;28;20031;-79
2022/06/03 06:34:39;;;;;;;4.10;1.73;;;;;;;26.12;23.37;102187.63;4966708;28;20695;-77
2022/06/03 06:37:47;;;;;;;5.13;1.98;;;;;;;27.09;21.97;102184.44;4969401;28;20035;-77
2022/06/03 06:40:55;;;;;;;2.65;2.00;;;;;;;27.44;19.65;102181.22;4982724;28;20108;-76
2022/06/03 06:43:48;;;;;;;3.67;2.45;;;;;;;27.29;20.57;102178.13;4964829;28;20031;-78
2022/06/03 06:46:48;;;;;;;2.50;2.30;;;;;;;26.64;20.89;102188.44;4971593;28;20031;-76
2022/06/03 06:49:37;;;;;;;2.80;2.25;;;;;;;27.46;21.00;102176.56;4971623;28;20067;-77
2022/06/03 06:52:24;;;;;;;3.83;1.80;;;;;;;27.95;19.43;102179.22;4967387;28;20035;-79
2022/06/03 06:55:12;;;;;;;2.58;2.28;;;;;;;28.18;18.88;102168.16;4966961;28;20504;-76
2022/06/03 06:57:46;;;;;;;5.90;2.42;;;;;;;28.03;18.60;102165.03;4966828;28;20054;-77
2022/06/03 07:00:24;;;;;;;2.58;1.55;;;;;;;26.89;19.68;102170.13;4951305;28;20031;-76
2022/06/03 07:03:34;;;;;;;2.63;2.33;;;;;;;26.77;19.61;102166.72;4944699;28;20057;-79
2022/06/03 07:06:11;;;;;;;3.97;1.45;;;;;;;27.29;19.76;102177.28;4966381;28;21362;-81
2022/06/03 07:08:51;;;;;;;2.63;1.45;;;;;;;27.83;19.41;102177.69;4958764;28;20566;-79
2022/06/03 07:11:27;;;;;;;3.35;2.13;;;;;;;28.25;19.00;102170.09;4956304;28;20162;-78
2022/06/03 07:13:59;;;;;;;2.75;1.83;;;;;;;29.02;17.25;102183.31;4964108;28;20039;-78
2022/06/03 07:20:07;;;;;;;2.70;1.58;;;;;;;28.43;17.74;102172.00;4932567;28;20047;-77
2022/06/03 07:22:51;;;;;;;2.22;1.45;;;;;;;27.75;18.71;102174.88;4971971;28;20050;-77
2022/06/03 07:25:42;;;;;;;4.07;1.58;;;;;;;26.68;19.62;102171.09;4971502;28;20266;-80
2022/06/03 07:28:43;;;;;;;3.30;2.28;;;;;;;27.20;19.56;102173.59;4982689;28;20057;-76
2022/06/03 07:31:21;;;;;;;4.18;1.30;;;;;;;28.93;18.02;102171.59;4977753;28;20027;-78
2022/06/03 07:34:25;;;;;;;2.22;1.60;;;;;;;28.33;16.60;102170.19;4972916;28;20054;-78
2022/06/03 07:36:59;;;;;;;1.30;0.68;;;;;;;27.69;18.71;102184.34;4980438;28;20037;-81
2022/06/03 07:39:48;;;;;;;2.70;1.00;;;;;;;27.75;18.77;102170.34;4959155;28;20042;-78
2022/06/03 07:42:47;;;;;;;2.35;1.00;;;;;;;28.51;18.34;102170.25;4971498;28;20513;-78
2022/06/03 07:45:49;;;;;;;2.33;1.30;;;;;;;27.47;18.33;102170.22;4954827;28;20047;-79
2022/06/03 07:48:18;;;;;;;3.80;1.20;;;;;;;27.76;18.69;102173.88;4960152;28;20053;-79
2022/06/03 07:51:12;;;;;;;3.55;0.95;;;;;;;28.11;18.12;102173.22;4972230;28;20046;-79
2022/06/03 07:54:03;;;;;;;3.13;0.70;;;;;;;28.33;17.20;102170.19;4942718;28;20062;-80
2022/06/03 07:56:30;;;;;;;3.65;0.60;;;;;;;29.54;16.08;102173.53;4946042;28;20030;-78
2022/06/03 07:58:59;;;;;;;1.48;0.80;;;;;;;28.89;17.05;102173.75;4949394;28;20108;-79
2022/06/03 08:01:34;;;;;;;5.22;0.43;;;;;;;29.03;17.44;102182.28;4974046;28;20058;-77
2022/06/03 08:04:00;;;;;;;1.15;0.50;;;;;;;29.86;16.47;102177.47;4971944;28;20081;-78
2022/06/03 08:12:10;;;;;;;3.00;0.93;;;;;;;29.48;17.64;102178.69;4974172;28;20050;-79
2022/06/03 08:14:36;;;;;;;3.25;0.73;;;;;;;29.62;15.87;102180.00;4961581;28;20035;-77
2022/06/03 08:17:04;;;;;;;1.00;0.30;;;;;;;28.97;16.17;102173.00;4957821;28;20512;-78
2022/06/03 08:19:33;;;;;;;2.53;0.70;;;;;;;28.86;17.25;102175.88;4958968;28;20126;-79
2022/06/03 08:22:02;;;;;;;1.55;1.13;;;;;;;28.46;16.72;102175.25;4954019;28;20239;-79
2022/06/03 08:24:33;;;;;;;2.80;1.00;;;;;;;28.40;16.67;102167.75;4955817;28;20055;-80
2022/06/03 08:27:03;;;;;;;3.22;1.17;;;;;;;29.40;16.51;102179.47;4956355;28;20517;-79
2022/06/03 08:29:48;;;;;;;3.57;0.97;;;;;;;28.63;17.06;102173.63;4939611;28;20061;-78
2022/06/03 08:32:19;;;;;;;1.38;1.08;;;;;;;29.49;17.15;102175.00;4941715;28;20042;-78
2022/06/03 08:34:49;;;;;;;2.90;1.50;;;;;;;27.98;17.89;102178.06;4957740;28;20030;-78
2022/06/03 08:37:19;;;;;;;1.00;0.50;;;;;;;28.31;16.55;102172.19;4946056;28;20138;-79
2022/06/03 08:39:46;;;;;;;3.05;0.70;;;;;;;28.85;15.61;102180.41;4971967;28;20039;-79
2022/06/03 08:42:41;;;;;;;1.13;0.30;;;;;;;27.53;16.43;102177.69;4959467;28;20043;-77
2022/06/03 08:45:32;;;;;;;1.40;0.93;;;;;;;27.95;17.34;102184.59;4961755;28;20032;-78
2022/06/03 08:48:18;;;;;;;2.37;1.20;;;;;;;27.69;17.83;102182.50;4958560;28;20051;-77
2022/06/03 08:51:50;;;;;;;3.38;0.80;;;;;;;28.84;17.16;102180.59;4965889;28;20074;-79
2022/06/03 08:54:36;;;;;;;4.97;1.73;;;;;;;29.49;16.71;102185.78;4953728;28;20117;-77
2022/06/03 08:57:29;;;;;;;4.28;2.10;;;;;;;30.13;16.22;102186.44;4952045;28;20051;-79
2022/06/03 09:00:09;;;;;;;2.58;1.70;;;;;;;30.59;16.01;102187.84;4969357;28;20611;-77
2022/06/03 09:02:46;;;;;;;1.77;0.93;;;;;;;29.37;16.70;102187.84;4955718;28;20074;-79
2022/06/03 09:05:32;;;;;;;1.58;0.52;;;;;;;28.51;16.33;102180.16;4965731;28;20139;-76
2022/06/03 09:08:33;;;;;;;1.45;0.50;;;;;;;28.38;16.98;102174.28;4968453;28;20046;-79
2022/06/03 09:12:06;;;;;;;1.60;0.40;;;;;;;27.88;16.82;102168.22;4967185;28;20456;-77
2022/06/03 09:18:57;;;;;;;1.80;0.60;;;;;;;27.90;16.88;102182.34;4960909;28;20074;-77
2022/06/03 09:21:28;;;;;;;5.40;0.88;;;;;;;27.44;17.62;102175.03;4975204;28;20073;-78
2022/06/03 09:24:13;;;;;;;1.60;0.77;;;;;;;27.55;18.28;102171.34;4972333;28;20073;-77
2022/06/03 09:27:41;;;;;;;2.28;1.30;;;;;;;27.46;17.71;102173.88;4967632;28;20049;-79
2022/06/03 09:30:28;;;;;;;3.40;0.52;;;;;;;27.85;17.30;102160.44;4985673;28;20038;-76
2022/06/03 09:32:59;;;;;;;2.10;0.90;;;;;;;27.56;17.66;102162.28;4948812;28;20406;-76
2022/06/03 09:35:38;;;;;;;3.13;2.65;;;;;;;27.07;19.04;102165.81;4968344;28;20034;-75
2022/06/03 09:42:04;;;;;;;4.05;1.30;;;;;;;25.03;19.56;102156.56;4978198;28;20479;-74
2022/06/03 09:44:36;;;;;;;1.73;1.10;;;;;;;24.45;21.04;102159.44;4937467;28;20055;-80
2022/06/03 09:47:20;;;;;;;2.70;1.50;;;;;;;23.94;20.57;102157.16;4955386;28;20299;-77
2022/06/03 09:49:57;;;;;;;3.50;1.55;;;;;;;23.69;21.86;102156.34;4973071;28;20049;-78
2022/06/03 09:53:04;;;;;;;6.65;1.05;;;;;;;23.07;22.56;102159.22;4965882;28;20086;-76
2022/06/03 09:55:40;;;;;;;1.92;0.28;;;;;;;22.57;20.23;102157.41;4976871;28;20066;-74
2022/06/03 09:58:20;;;;;;;1.30;0.30;;;;;;;21.41;21.60;102165.34;4984212;28;20041;-79
2022/06/03 10:00:55;;;;;;;0.77;0.20;;;;;;;21.63;23.56;102164.81;4990396;28;20046;-77
2022/06/03 10:03:25;;;;;;;;;;;;;;;21.49;24.01;102160.38;4916267;28;20050;-77
2022/06/03 10:05:58;;;;;;;1.35;0.40;;;;;;;21.77;23.18;102160.25;4980711;28;19937;-77
2022/06/03 10:14:14;;;;;;;2.55;0.60;;;;;;;21.80;23.21;102153.00;4986557;28;20070;-76
2022/06/03 10:17:08;;;;;;;3.42;0.63;;;;;;;22.02;23.29;102157.72;4961904;28;20135;-77
2022/06/03 10:20:08;;;;;;;2.75;0.20;;;;;;;22.48;20.68;102147.41;4878465;28;20635;-77
2022/06/03 10:23:04;;;;;;;0.88;0.22;;;;;;;22.25;19.95;102145.50;4969481;28;20179;-77
2022/06/03 10:26:43;;;;;;;0.88;0.30;;;;;;;22.09;22.39;102153.72;4974157;28;20092;-78
2022/06/03 10:29:34;;;;;;;0.70;0.40;;;;;;;22.56;21.16;102152.16;4968992;28;20049;-77
2022/06/03 10:32:02;;;;;;;0.80;0.20;;;;;;;22.00;21.85;102149.84;4973307;28;20061;-76
2022/06/03 10:38:07;;;;;;;1.80;0.25;;;;;;;22.78;19.93;102144.41;4969357;28;20057;-77
2022/06/03 10:40:59;;;;;;;0.93;0.20;;;;;;;22.27;20.81;102146.25;4974273;28;20078;-77
2022/06/03 10:43:30;;;;;;;0.77;0.20;;;;;;;22.04;21.41;102142.50;4952845;28;20126;-78
2022/06/03 10:46:17;;;;;;;1.20;0.20;;;;;;;21.93;22.06;102136.09;4954977;28;20031;-77
2022/06/03 10:48:44;;;;;;;0.50;0.20;;;;;;;21.74;21.74;102130.34;4967788;28;20670;-77
2022/06/03 11:02:36;;;;;;;7.05;0.38;;;;;;;22.28;21.39;102129.31;4972105;28;20257;-76
2022/06/03 11:05:13;;;;;;;1.45;0.30;;;;;;;21.83;24.76;102127.06;4950546;28;20050;-79
2022/06/03 11:07:40;;;;;;;1.30;0.40;;;;;;;22.05;24.30;102115.78;4959206;28;20051;-76
2022/06/03 11:10:14;;;;;;;2.53;0.47;;;;;;;21.73;23.31;102115.31;4964232;28;20046;-77
2022/06/03 11:12:43;;;;;;;2.45;0.40;;;;;;;21.88;25.09;102114.28;4951089;28;20051;-76
2022/06/03 11:15:31;;;;;;;1.02;0.10;;;;;;;21.76;23.32;102115.97;4967543;28;20014;-79
2022/06/03 11:18:00;;;;;;;1.92;0.20;;;;;;;21.60;23.62;102102.03;4967345;28;20051;-77
2022/06/03 11:20:44;;;;;;;2.50;0.20;;;;;;;21.54;23.83;102105.09;4970799;28;20037;-77
2022/06/03 11:24:00;;;;;;;0.63;0.20;;;;;;;22.02;22.76;102108.00;4953538;28;20129;-78
2022/06/03 11:26:29;;;;;;;;;;;;;;;22.13;21.97;102097.47;4967056;28;20335;-77
2022/06/03 11:29:04;;;;;;;0.55;0.10;;;;;;;21.61;22.53;102105.53;4956831;28;19922;-77
2022/06/03 11:31:42;;;;;;;1.80;0.28;;;;;;;21.75;23.42;102100.09;4948708;28;20125;-78
2022/06/03 11:34:19;;;;;;;2.13;0.15;;;;;;;21.65;23.41;102097.25;4963540;28;20057;-79
2022/06/03 11:36:54;;;;;;;1.75;0.10;;;;;;;21.94;23.01;102097.03;4979093;28;20035;-77
2022/06/03 11:39:37;;;;;;;2.05;0.10;;;;;;;21.84;23.51;102086.16;4949107;28;20658;-78
2022/06/03 11:42:16;;;;;;;0.25;0.10;;;;;;;21.15;24.03;102089.03;4967515;28;20037;-76
2022/06/03 11:44:45;;;;;;;2.05;0.20;;;;;;;22.17;23.07;102080.31;4974856;28;20048;-77
2022/06/03 11:47:20;;;;;;;1.50;0.32;;;;;;;21.57;23.29;102083.59;4960505;28;20054;-77
2022/06/03 11:49:46;;;;;;;1.05;0.10;;;;;;;21.13;22.11;102085.59;4964416;28;20039;-78
2022/06/03 11:52:19;;;;;;;0.57;0.20;;;;;;;21.09;23.65;102083.25;4941353;28;20039;-78
2022/06/03 11:55:10;;;;;;;0.50;0.10;;;;;;;21.07;22.94;102086.00;4984415;28;20023;-75
2022/06/03 11:58:32;;;;;;;0.40;0.10;;;;;;;22.29;20.61;102078.63;4958094;28;20054;-75
2022/06/03 12:01:06;;;;;;;0.22;0.10;;;;;;;22.23;20.28;102076.41;4969733;28;20086;-76
2022/06/03 12:03:44;;;;;;;6.43;0.30;;;;;;;22.50;20.05;102078.03;4966133;28;20043;-76
2022/06/03 12:06:29;;;;;;;1.85;0.20;;;;;;;22.37;21.32;102078.06;4974227;28;20038;-76
2022/06/03 12:09:33;;;;;;;2.65;0.10;;;;;;;22.70;21.08;102079.28;4985424;28;20369;-78
2022/06/03 12:15:30;;;;;;;0.60;0.30;;;;;;;22.20;21.06;102081.91;4966354;28;20034;-76
2022/06/03 12:18:06;;;;;;;2.88;0.20;;;;;;;21.61;22.30;102077.13;4952890;28;20074;-75
2022/06/03 12:20:52;;;;;;;1.90;0.00;;;;;;;22.05;19.50;102070.53;4987247;28;20099;-78
2022/06/03 12:23:22;;;;;;;1.58;0.10;;;;;;;21.69;21.63;102066.81;4985242;28;20057;-77
2022/06/03 12:25:55;;;;;;;0.55;0.20;;;;;;;22.09;21.63;102068.50;4984839;28;20240;-77
2022/06/03 12:29:18;;;;;;;1.08;0.20;;;;;;;21.94;22.10;102060.63;4984633;28;20040;-76
2022/06/03 12:31:51;;;;;;;1.25;0.10;;;;;;;21.62;22.12;102070.81;4971025;28;20083;-76
2022/06/03 12:34:27;;;;;;;1.95;0.30;;;;;;;21.75;23.63;102062.84;4962469;28;20047;-80
2022/06/03 12:37:03;;;;;;;1.63;0.15;;;;;;;22.35;22.11;102064.84;4967729;28;20046;-77
2022/06/03 12:39:33;;;;;;;0.65;0.08;;;;;;;22.56;20.97;102067.78;4951013;28;20051;-77
2022/06/03 12:42:45;;;;;;;0.98;0.10;;;;;;;22.29;20.33;102065.31;4986382;28;20027;-76
2022/06/03 12:45:41;;;;;;;1.77;0.20;;;;;;;22.28;21.56;102063.59;4971704;28;20035;-76
2022/06/03 12:48:48;;;;;;;1.45;0.17;;;;;;;21.94;23.15;102075.75;4944316;28;20078;-76
2022/06/03 12:51:56;;;;;;;0.40;0.40;;;;;;;22.17;21.04;102077.66;4955805;28;20039;-79
2022/06/03 12:54:23;;;;;;;1.33;0.30;;;;;;;22.09;22.76;102088.03;4958706;28;20058;-77
2022/06/03 12:57:20;;;;;;;1.95;0.20;;;;;;;22.03;22.83;102085.75;4982194;28;20112;-77
2022/06/03 13:00:00;;;;;;;0.82;0.20;;;;;;;22.07;24.16;102084.59;4953451;28;20046;-76
2022/06/03 13:02:48;;;;;;;5.32;0.47;;;;;;;21.86;23.30;102088.72;4963474;28;20058;-78
2022/06/03 13:05:54;;;;;;;2.13;0.52;;;;;;;21.89;23.63;102088.50;4984519;28;20050;-76
2022/06/03 13:11:30;;;;;;;1.75;0.20;;;;;;;21.82;23.19;102084.56;4965753;28;20051;-78
2022/06/03 13:13:56;;;;;;;3.38;0.45;;;;;;;21.72;22.59;102090.53;4952360;28;20110;-77
2022/06/03 13:16:34;;;;;;;1.33;0.30;;;;;;;21.47;23.55;102078.06;4952741;28;20063;-77
2022/06/03 13:19:12;;;;;;;2.05;0.20;;;;;;;21.29;23.72;102081.94;4961325;28;20038;-78
2022/06/03 13:21:57;;;;;;;0.55;0.10;;;;;;;20.96;23.96;102072.56;4985423;28;20054;-76
2022/06/03 13:24:32;;;;;;;2.45;0.15;;;;;;;21.83;23.79;102079.16;4984404;28;20115;-79
2022/06/03 13:26:58;;;;;;;0.70;0.20;;;;;;;21.62;22.48;102078.81;4961872;28;20098;-77
2022/06/03 13:29:49;;;;;;;0.20;0.10;;;;;;;21.08;22.64;102082.38;4979693;28;20059;-77
2022/06/03 13:32:39;;;;;;;;;;;;;;;21.20;23.52;102091.38;4978682;28;20133;-79
2022/06/03 13:35:38;;;;;;;3.85;0.28;;;;;;;21.39;22.83;102090.13;4990075;28;19949;-78
2022/06/03 13:38:57;;;;;;;1.58;0.45;;;;;;;21.66;24.88;102093.59;4968399;28;20074;-80
2022/06/03 13:49:27;;;;;;;1.30;0.28;;;;;;;20.87;25.61;102084.66;4927477;28;20099;-75
2022/06/03 13:52:14;;;;;;;1.95;0.20;;;;;;;21.29;25.90;102085.44;4957774;28;20043;-80
2022/06/03 13:55:29;;;;;;;2.22;0.20;;;;;;;21.13;25.03;102080.28;4971425;28;20042;-77
2022/06/03 13:58:37;;;;;;;2.40;0.40;;;;;;;19.61;28.42;102091.53;4897916;28;20058;-77
2022/06/03 14:01:47;;;;;;;2.72;0.32;;;;;;;19.89;28.20;102086.28;4962519;28;20420;-79
2022/06/03 14:04:49;;;;;;;4.03;0.82;;;;;;;20.67;27.05;102088.56;4951517;28;20062;-79
2022/06/03 14:07:25;;;;;;;5.18;0.20;;;;;;;20.24;26.48;102085.09;4963606;28;20047;-80
2022/06/03 14:09:54;;;;;;;1.52;0.30;;;;;;;20.53;26.41;102089.44;4955917;28;20023;-74
2022/06/03 14:12:59;;;;;;;0.82;0.20;;;;;;;20.39;27.62;102093.91;4928201;28;20043;-76
2022/06/03 14:15:31;;;;;;;3.50;0.20;;;;;;;20.67;27.37;102093.03;4975931;28;20031;-78
2022/06/03 14:18:03;;;;;;;0.80;0.20;;;;;;;20.48;27.96;102083.56;4973732;28;20322;-77
2022/06/03 14:20:36;;;;;;;1.67;0.30;;;;;;;19.68;27.11;102085.81;4959505;28;20043;-76
2022/06/03 14:23:21;;;;;;;0.70;0.20;;;;;;;19.34;29.08;102086.03;4969058;28;20042;-77
2022/06/03 14:26:08;;;;;;;2.70;0.40;;;;;;;19.12;29.37;102084.63;4976014;28;20173;-77
2022/06/03 14:28:57;;;;;;;1.50;0.50;;;;;;;19.03;30.72;102086.03;4963299;28;20366;-79